Time;durP1;ratioP1;P1;durP2;ratioP2;P2;SDS_P1;SDS_P2;PMS_P1;PMS_P2;Temp;Humidity;BMP_temperature;BMP_pressure;BME280_temperature;BME280_humidity;BME280_pressure;Samples;Min_cycle;Max_cycle;Signal;HPM_P1;HPM_P2
2022/06/28 00:01:57;;;;;;;2.73;2.30;;;17.50;90.90;;;;;;5077114;28;20448;-70
2022/06/28 00:04:25;;;;;;;3.20;2.27;;;17.60;91.00;;;;;;5077393;28;20489;-69
2022/06/28 00:06:52;;;;;;;7.03;3.10;;;17.50;90.90;;;;;;5077373;28;20444;-69
2022/06/28 00:09:19;;;;;;;4.60;2.77;;;17.50;91.10;;;;;;5077352;28;20812;-72
2022/06/28 00:11:46;;;;;;;3.67;2.03;;;17.50;91.10;;;;;;5078755;28;20865;-70
2022/06/28 00:16:58;;;;;;;4.50;2.80;;;17.50;91.30;;;;;;5081766;28;20408;-70
2022/06/28 00:19:27;;;;;;;2.27;2.07;;;17.50;91.30;;;;;;5078025;28;20445;-69
2022/06/28 00:21:54;;;;;;;4.27;2.13;;;17.60;91.20;;;;;;5076234;28;20449;-69
2022/06/28 00:24:20;;;;;;;2.80;2.60;;;17.60;91.00;;;;;;5076357;28;20469;-69
2022/06/28 00:26:48;;;;;;;3.50;1.97;;;17.50;90.80;;;;;;5076127;28;20445;-69
2022/06/28 00:29:15;;;;;;;6.57;2.90;;;17.50;90.80;;;;;;5076651;28;20468;-70
2022/06/28 00:31:42;;;;;;;2.97;2.53;;;17.50;90.80;;;;;;5075842;28;20446;-69
2022/06/28 00:34:09;;;;;;;3.57;2.30;;;17.60;90.80;;;;;;5076046;28;20480;-69
2022/06/28 00:36:37;;;;;;;4.70;2.27;;;17.50;90.80;;;;;;5076088;28;20455;-69
2022/06/28 00:39:04;;;;;;;3.20;2.90;;;17.60;91.20;;;;;;5075952;28;20448;-69
2022/06/28 00:41:31;;;;;;;6.73;3.20;;;17.60;90.80;;;;;;5075665;28;20470;-69
2022/06/28 00:43:59;;;;;;;2.80;2.60;;;17.50;90.40;;;;;;5075151;28;20464;-69
2022/06/28 00:46:27;;;;;;;3.60;2.90;;;17.40;90.20;;;;;;5075300;28;20471;-70
2022/06/28 00:48:53;;;;;;;4.90;2.70;;;17.40;90.20;;;;;;5074818;28;20956;-69
2022/06/28 00:51:21;;;;;;;2.77;2.57;;;17.40;90.30;;;;;;5075160;28;20440;-69
2022/06/28 00:53:49;;;;;;;3.20;2.60;;;17.30;90.10;;;;;;5074851;28;20515;-69
2022/06/28 00:56:15;;;;;;;3.20;2.90;;;17.30;90.20;;;;;;5075261;28;20539;-69
2022/06/28 00:58:42;;;;;;;2.60;2.40;;;17.20;90.20;;;;;;5075013;28;20444;-69
2022/06/28 01:01:09;;;;;;;6.83;3.27;;;17.20;90.60;;;;;;5074947;28;20441;-69
2022/06/28 01:03:37;;;;;;;3.50;2.90;;;17.10;90.30;;;;;;5074746;28;20487;-69
2022/06/28 01:06:04;;;;;;;4.70;2.70;;;17.10;90.40;;;;;;5074866;28;20441;-69
2022/06/28 01:08:31;;;;;;;3.30;2.53;;;17.10;90.60;;;;;;5074743;28;20864;-69
2022/06/28 01:11:18;;;;;;;4.90;3.20;;;17.00;90.80;;;;;;5074724;28;20468;-69
2022/06/28 01:13:45;;;;;;;5.53;2.87;;;17.00;91.20;;;;;;5074466;28;20484;-69
2022/06/28 01:16:12;;;;;;;5.97;3.30;;;17.00;91.40;;;;;;5074638;28;20444;-69
2022/06/28 01:18:39;;;;;;;10.07;3.30;;;17.00;91.50;;;;;;5074593;28;20482;-69
2022/06/28 01:21:07;;;;;;;6.07;3.53;;;16.90;91.60;;;;;;5074726;28;20448;-70
2022/06/28 01:23:35;;;;;;;8.90;3.10;;;16.90;91.60;;;;;;5074496;28;20481;-70
2022/06/28 01:26:02;;;;;;;5.20;2.97;;;16.90;91.60;;;;;;5074504;28;20786;-70
2022/06/28 01:28:30;;;;;;;5.27;2.90;;;16.90;91.70;;;;;;5074165;28;20448;-70
2022/06/28 01:30:57;;;;;;;13.80;3.90;;;17.00;91.90;;;;;;5074378;28;20441;-70
2022/06/28 01:33:24;;;;;;;8.67;3.57;;;17.00;91.80;;;;;;5074071;28;20489;-70
2022/06/28 01:35:50;;;;;;;5.53;3.27;;;17.00;91.90;;;;;;5074296;28;20455;-70
2022/06/28 01:38:17;;;;;;;5.53;3.73;;;16.90;91.70;;;;;;5074678;28;20456;-70
2022/06/28 01:40:46;;;;;;;6.70;3.00;;;16.90;91.70;;;;;;5074317;28;20449;-70
2022/06/28 01:43:13;;;;;;;6.63;2.80;;;16.90;91.70;;;;;;5074093;28;20439;-69
2022/06/28 01:45:40;;;;;;;7.70;3.23;;;16.80;91.40;;;;;;5074020;28;20493;-69
2022/06/28 01:48:08;;;;;;;8.00;3.53;;;16.80;91.20;;;;;;5074034;28;20445;-69
2022/06/28 01:50:34;;;;;;;4.00;2.80;;;16.70;91.10;;;;;;5073941;28;20531;-69
2022/06/28 01:53:01;;;;;;;4.60;3.20;;;16.70;91.20;;;;;;5073516;28;20812;-69
2022/06/28 01:55:28;;;;;;;5.13;2.63;;;16.70;91.20;;;;;;5073364;28;20484;-69
2022/06/28 01:57:56;;;;;;;6.47;3.30;;;16.70;91.50;;;;;;5073885;28;20449;-69
2022/06/28 02:00:23;;;;;;;10.77;3.73;;;16.70;91.70;;;;;;5073483;28;20450;-69
2022/06/28 02:02:50;;;;;;;5.00;3.07;;;16.70;91.90;;;;;;5073915;28;20425;-69
2022/06/28 02:05:17;;;;;;;6.37;2.87;;;16.70;91.60;;;;;;5073474;28;20468;-69
2022/06/28 02:07:47;;;;;;;6.03;2.90;;;16.70;91.60;;;;;;5073365;28;20869;-69
2022/06/28 02:10:14;;;;;;;6.50;3.23;;;16.70;91.50;;;;;;5073823;28;20440;-69
2022/06/28 02:12:41;;;;;;;3.63;3.30;;;16.70;91.50;;;;;;5073665;28;20448;-69
2022/06/28 02:15:10;;;;;;;3.27;2.70;;;16.60;91.30;;;;;;5073532;28;20484;-69
2022/06/28 02:17:37;;;;;;;2.83;2.60;;;16.60;91.30;;;;;;5073348;28;20988;-69
2022/06/28 02:20:05;;;;;;;3.37;2.73;;;16.60;91.10;;;;;;5073705;28;20460;-69
2022/06/28 02:22:31;;;;;;;5.60;3.47;;;16.60;91.40;;;;;;5073595;28;20445;-69
2022/06/28 02:24:58;;;;;;;6.00;2.60;;;16.60;90.90;;;;;;5073614;28;20494;-69
2022/06/28 02:27:25;;;;;;;4.43;3.37;;;16.50;90.80;;;;;;5073652;28;20451;-69
2022/06/28 02:29:52;;;;;;;9.10;3.50;;;16.50;90.80;;;;;;5073349;28;20453;-69
2022/06/28 02:32:20;;;;;;;6.47;2.63;;;16.50;90.80;;;;;;5073270;28;20930;-69
2022/06/28 02:40:24;;;;;;;3.47;1.93;;;16.40;90.50;;;;;;5073576;28;20413;-69
2022/06/28 02:42:53;;;;;;;3.60;2.53;;;16.40;90.60;;;;;;5073341;28;20429;-68
2022/06/28 02:45:21;;;;;;;3.10;2.80;;;16.40;90.60;;;;;;5073408;28;20457;-67
2022/06/28 02:47:49;;;;;;;7.47;2.53;;;16.40;90.50;;;;;;5073641;28;20460;-67
2022/06/28 02:50:16;;;;;;;2.93;2.20;;;16.30;90.50;;;;;;5073929;28;20439;-67
2022/06/28 02:52:43;;;;;;;7.13;2.97;;;16.30;90.50;;;;;;5074870;28;20449;-67
2022/06/28 02:55:10;;;;;;;7.67;2.67;;;16.30;90.40;;;;;;5073478;28;21008;-67
2022/06/28 02:57:38;;;;;;;6.37;2.70;;;16.30;90.50;;;;;;5073322;28;20455;-67
2022/06/28 03:00:08;;;;;;;6.80;3.30;;;16.40;90.80;;;;;;5073211;28;20544;-67
2022/06/28 03:02:35;;;;;;;6.90;2.80;;;16.40;91.50;;;;;;5072902;28;20425;-67
2022/06/28 03:05:08;;;;;;;4.60;3.10;;;16.40;92.10;;;;;;5073192;28;20460;-67
2022/06/28 03:07:34;;;;;;;6.13;2.90;;;16.40;92.30;;;;;;5072898;28;20917;-67
2022/06/28 03:10:01;;;;;;;3.10;2.53;;;16.30;92.30;;;;;;5073473;28;20454;-68
2022/06/28 03:12:28;;;;;;;6.70;2.40;;;16.30;92.30;;;;;;5074887;28;20463;-67
2022/06/28 03:14:55;;;;;;;4.60;1.90;;;16.20;91.90;;;;;;5076789;28;20488;-67
2022/06/28 03:17:22;;;;;;;4.00;2.90;;;16.10;91.80;;;;;;5076606;28;20960;-67
2022/06/28 03:19:49;;;;;;;3.03;2.40;;;16.10;91.60;;;;;;5076908;28;20441;-67
2022/06/28 03:22:17;;;;;;;7.67;2.57;;;16.00;91.40;;;;;;5076704;28;20449;-68
2022/06/28 03:24:44;;;;;;;4.23;2.40;;;16.00;91.20;;;;;;5076495;28;21006;-67
2022/06/28 03:27:10;;;;;;;4.67;2.50;;;16.00;91.20;;;;;;5076731;28;20455;-67
2022/06/28 03:29:37;;;;;;;6.13;2.63;;;15.90;91.20;;;;;;5076312;28;20464;-67
2022/06/28 03:32:05;;;;;;;7.43;2.97;;;15.90;91.50;;;;;;5076575;28;20452;-67
2022/06/28 03:34:32;;;;;;;3.77;2.37;;;15.90;91.70;;;;;;5076471;28;20480;-67
2022/06/28 03:36:58;;;;;;;4.43;2.90;;;15.90;91.60;;;;;;5076594;28;20448;-67
2022/06/28 03:39:27;;;;;;;6.23;2.73;;;15.80;91.40;;;;;;5076468;28;20450;-67
2022/06/28 03:41:53;;;;;;;9.33;3.20;;;15.80;91.40;;;;;;5076223;28;20847;-67
2022/06/28 03:44:20;;;;;;;5.17;3.07;;;15.80;91.30;;;;;;5076623;28;20843;-67
2022/06/28 03:46:47;;;;;;;12.10;3.13;;;15.80;91.20;;;;;;5076319;28;20444;-67
2022/06/28 03:49:14;;;;;;;6.93;2.30;;;15.80;91.20;;;;;;5076284;28;20452;-67
2022/06/28 03:51:40;;;;;;;3.13;2.33;;;15.70;91.20;;;;;;5076896;28;20451;-69
2022/06/28 03:54:07;;;;;;;8.33;3.37;;;15.70;91.60;;;;;;5077543;28;20484;-69
2022/06/28 03:56:35;;;;;;;6.67;2.60;;;15.70;91.20;;;;;;5077758;28;20451;-69
2022/06/28 03:59:02;;;;;;;4.63;3.20;;;15.70;91.30;;;;;;5077712;28;20440;-69
2022/06/28 04:01:29;;;;;;;4.27;2.53;;;15.70;91.20;;;;;;5077305;28;20819;-69
2022/06/28 04:03:56;;;;;;;10.37;2.70;;;15.80;91.20;;;;;;5076784;28;20464;-69
2022/06/28 04:06:23;;;;;;;11.37;3.60;;;15.70;91.20;;;;;;5076960;28;20445;-69
2022/06/28 04:08:49;;;;;;;8.23;2.70;;;15.80;91.60;;;;;;5077129;28;20445;-69
2022/06/28 04:11:16;;;;;;;6.60;3.17;;;15.80;91.30;;;;;;5077117;28;20823;-69
2022/06/28 04:13:46;;;;;;;11.40;2.93;;;15.80;91.30;;;;;;5076707;28;20468;-69
2022/06/28 04:16:13;;;;;;;6.90;2.70;;;15.80;91.40;;;;;;5075610;28;20445;-68
2022/06/28 04:18:40;;;;;;;5.80;2.90;;;15.90;91.50;;;;;;5075878;28;20455;-68
2022/06/28 04:21:07;;;;;;;3.93;2.60;;;15.90;91.50;;;;;;5075875;28;20547;-68
2022/06/28 04:23:34;;;;;;;2.50;2.20;;;15.90;91.60;;;;;;5075275;28;20832;-69
2022/06/28 04:26:01;;;;;;;7.67;3.03;;;16.00;91.70;;;;;;5075698;28;20440;-71
2022/06/28 04:28:28;;;;;;;4.17;2.47;;;16.00;91.60;;;;;;5075498;28;20814;-68
2022/06/28 04:30:56;;;;;;;2.67;2.43;;;16.00;91.60;;;;;;5076268;28;20527;-68
2022/06/28 04:33:22;;;;;;;9.60;2.53;;;16.10;91.70;;;;;;5075458;28;20795;-68
2022/06/28 04:35:49;;;;;;;12.00;2.87;;;16.10;91.90;;;;;;5075452;28;20473;-68
2022/06/28 04:38:16;;;;;;;6.93;2.87;;;16.20;92.20;;;;;;5075406;28;20445;-68
2022/06/28 04:40:43;;;;;;;4.90;2.87;;;16.30;92.50;;;;;;5075429;28;20453;-68
2022/06/28 04:43:10;;;;;;;5.57;2.90;;;16.30;92.60;;;;;;5074948;28;20960;-68
2022/06/28 04:45:37;;;;;;;7.77;3.07;;;16.30;93.00;;;;;;5074953;28;20463;-68
2022/06/28 04:48:05;;;;;;;7.17;3.17;;;16.40;93.20;;;;;;5074929;28;20965;-68
2022/06/28 04:50:32;;;;;;;8.27;2.73;;;16.40;93.30;;;;;;5075198;28;20524;-68
2022/06/28 04:52:59;;;;;;;6.40;3.30;;;16.40;93.30;;;;;;5075105;28;20440;-68
2022/06/28 04:55:26;;;;;;;11.83;4.37;;;16.40;93.50;;;;;;5074439;28;20491;-68
2022/06/28 04:57:53;;;;;;;8.63;2.83;;;16.50;93.30;;;;;;5075059;28;20467;-68
2022/06/28 05:00:20;;;;;;;3.53;2.80;;;16.50;93.20;;;;;;5074923;28;20444;-68
2022/06/28 05:02:46;;;;;;;4.50;2.53;;;16.50;93.20;;;;;;5074854;28;20839;-68
2022/06/28 05:05:14;;;;;;;7.03;3.07;;;16.50;92.90;;;;;;5075487;28;20966;-68
2022/06/28 05:07:41;;;;;;;5.20;3.03;;;16.50;93.10;;;;;;5074837;28;20456;-68
2022/06/28 05:10:09;;;;;;;4.63;2.73;;;16.50;93.10;;;;;;5074360;28;20877;-68
2022/06/28 05:12:35;;;;;;;3.23;2.53;;;16.50;93.20;;;;;;5074813;28;20445;-68
2022/06/28 05:15:02;;;;;;;8.53;3.60;;;16.50;93.70;;;;;;5074690;28;20491;-68
2022/06/28 05:17:29;;;;;;;7.33;2.70;;;16.50;93.30;;;;;;5074781;28;20444;-71
2022/06/28 05:19:56;;;;;;;5.57;2.90;;;16.60;93.40;;;;;;5074764;28;20448;-72
2022/06/28 05:22:24;;;;;;;8.33;3.17;;;16.60;93.50;;;;;;5074883;28;20445;-71
2022/06/28 05:24:51;;;;;;;5.93;2.80;;;16.70;93.70;;;;;;5074519;28;20974;-71
2022/06/28 05:27:18;;;;;;;4.23;2.60;;;16.70;93.70;;;;;;5075397;28;20449;-71
2022/06/28 05:29:44;;;;;;;8.30;2.60;;;16.80;93.70;;;;;;5075815;28;20460;-71
2022/06/28 05:32:11;;;;;;;10.40;3.23;;;16.80;93.60;;;;;;5074981;28;20448;-72
2022/06/28 05:34:38;;;;;;;5.60;3.00;;;16.80;93.60;;;;;;5073436;28;20492;-71
2022/06/28 05:37:06;;;;;;;3.13;2.50;;;16.80;93.50;;;;;;5074242;28;20460;-71
2022/06/28 05:39:34;;;;;;;7.57;2.10;;;16.90;93.40;;;;;;5074733;28;20449;-71
2022/06/28 05:42:01;;;;;;;3.50;2.40;;;16.90;93.70;;;;;;5073771;28;20851;-71
2022/06/28 05:44:27;;;;;;;10.57;2.70;;;16.90;93.40;;;;;;5073687;28;20838;-71
2022/06/28 05:46:54;;;;;;;5.37;2.37;;;16.90;93.40;;;;;;5073904;28;20452;-71
2022/06/28 05:49:21;;;;;;;6.00;2.47;;;17.00;92.80;;;;;;5074035;28;20448;-71
2022/06/28 05:51:48;;;;;;;4.37;2.47;;;17.00;92.70;;;;;;5073951;28;20781;-71
2022/06/28 05:54:14;;;;;;;3.27;2.20;;;17.00;92.60;;;;;;5073744;28;20465;-71
2022/06/28 05:56:43;;;;;;;5.20;2.27;;;17.00;92.50;;;;;;5073627;28;20965;-71
2022/06/28 05:59:09;;;;;;;4.03;2.20;;;17.10;92.30;;;;;;5073886;28;20810;-72
2022/06/28 06:01:36;;;;;;;5.43;2.00;;;17.20;91.90;;;;;;5073519;28;20929;-71
2022/06/28 06:04:03;;;;;;;4.33;2.17;;;17.30;92.00;;;;;;5073582;28;20836;-71
2022/06/28 06:06:30;;;;;;;5.30;2.37;;;17.40;91.70;;;;;;5073619;28;20960;-72
2022/06/28 06:08:56;;;;;;;9.73;3.40;;;17.50;91.20;;;;;;5073916;28;20448;-72
2022/06/28 06:11:23;;;;;;;8.17;2.07;;;17.50;91.30;;;;;;5073485;28;20449;-71
2022/06/28 06:13:51;;;;;;;4.53;1.93;;;17.60;91.00;;;;;;5073681;28;20481;-71
2022/06/28 06:16:18;;;;;;;7.13;2.40;;;17.60;90.50;;;;;;5073332;28;20488;-71
2022/06/28 06:18:45;;;;;;;2.43;1.90;;;17.70;90.80;;;;;;5073685;28;20811;-71
2022/06/28 06:21:12;;;;;;;7.67;2.73;;;17.80;90.60;;;;;;5073404;28;20957;-71
2022/06/28 06:23:38;;;;;;;4.13;1.80;;;17.90;89.90;;;;;;5073159;28;20989;-71
2022/06/28 06:26:05;;;;;;;5.33;2.27;;;18.00;90.10;;;;;;5073539;28;20444;-72
2022/06/28 06:28:34;;;;;;;3.90;2.03;;;18.10;89.50;;;;;;5073418;28;20445;-72
2022/06/28 06:31:02;;;;;;;8.57;2.33;;;18.20;89.00;;;;;;5073541;28;20494;-71
2022/06/28 06:33:29;;;;;;;6.33;2.10;;;18.30;88.30;;;;;;5073372;28;20448;-71
2022/06/28 06:35:56;;;;;;;5.83;2.30;;;18.40;86.90;;;;;;5073231;28;20846;-71
2022/06/28 06:38:23;;;;;;;4.80;2.13;;;18.50;87.00;;;;;;5073460;28;20539;-71
2022/06/28 06:40:49;;;;;;;9.30;2.63;;;18.60;87.90;;;;;;5073457;28;20469;-71
2022/06/28 06:43:16;;;;;;;5.13;2.03;;;18.70;87.70;;;;;;5073047;28;20930;-71
2022/06/28 06:45:43;;;;;;;3.57;1.47;;;18.80;86.50;;;;;;5074038;28;20448;-71
2022/06/28 06:48:11;;;;;;;5.87;1.90;;;18.90;86.20;;;;;;5077557;28;20444;-72
2022/06/28 06:50:38;;;;;;;6.00;2.10;;;19.00;85.30;;;;;;5077774;28;20452;-72
2022/06/28 06:53:05;;;;;;;9.20;1.83;;;19.20;84.00;;;;;;5077384;28;20449;-71
2022/06/28 06:55:32;;;;;;;2.90;1.57;;;19.40;84.00;;;;;;5076960;28;20845;-71
2022/06/28 06:57:58;;;;;;;4.27;2.10;;;19.50;83.30;;;;;;5077448;28;20443;-72
2022/06/28 07:00:25;;;;;;;6.80;2.10;;;19.70;82.60;;;;;;5077204;28;20820;-71
2022/06/28 07:02:52;;;;;;;3.10;2.00;;;19.80;81.80;;;;;;5076927;28;20938;-72
2022/06/28 07:05:20;;;;;;;1.43;1.10;;;19.90;79.80;;;;;;5077157;28;20460;-71
2022/06/28 07:07:47;;;;;;;4.93;1.63;;;20.00;79.00;;;;;;5077209;28;20448;-72
2022/06/28 07:10:13;;;;;;;5.37;1.83;;;20.20;78.60;;;;;;5077236;28;20456;-71
2022/06/28 07:12:41;;;;;;;4.73;1.50;;;20.40;77.00;;;;;;5077743;28;20440;-71
2022/06/28 07:15:09;;;;;;;3.63;1.57;;;20.60;76.80;;;;;;5076759;28;20583;-71
2022/06/28 07:17:35;;;;;;;4.13;1.30;;;20.70;76.00;;;;;;5077006;28;20795;-72
2022/06/28 07:20:02;;;;;;;4.90;1.90;;;21.00;75.30;;;;;;5076933;28;20440;-72
2022/06/28 07:22:30;;;;;;;3.63;1.17;;;21.20;73.10;;;;;;5076800;28;20444;-71
2022/06/28 07:24:59;;;;;;;3.57;0.80;;;21.30;70.90;;;;;;5076774;28;20464;-71
2022/06/28 07:27:26;;;;;;;5.10;1.70;;;21.50;70.90;;;;;;5076811;28;20445;-72
2022/06/28 07:29:53;;;;;;;2.00;0.73;;;21.70;70.40;;;;;;5076381;28;20468;-72
2022/06/28 07:32:20;;;;;;;3.57;1.13;;;22.00;70.20;;;;;;5076680;28;20531;-71
2022/06/28 07:34:47;;;;;;;4.23;1.30;;;22.30;68.80;;;;;;5076772;28;20470;-71
2022/06/28 07:37:14;;;;;;;3.43;1.47;;;22.50;66.60;;;;;;5076647;28;20448;-71
2022/06/28 07:39:43;;;;;;;5.77;1.40;;;22.70;65.60;;;;;;5076397;28;20970;-72
2022/06/28 07:42:10;;;;;;;2.77;1.00;;;22.80;63.80;;;;;;5076618;28;20448;-71
2022/06/28 07:44:36;;;;;;;6.37;1.10;;;23.00;65.00;;;;;;5076345;28;20502;-71
2022/06/28 07:47:03;;;;;;;5.43;1.10;;;23.30;64.20;;;;;;5076051;28;20451;-72
2022/06/28 07:54:56;;;;;;;1.40;0.80;;;23.90;58.30;;;;;;5075296;28;20995;-72
2022/06/28 07:57:23;;;;;;;1.80;0.90;;;24.10;58.20;;;;;;5075229;28;20547;-72
2022/06/28 07:59:50;;;;;;;2.40;0.90;;;24.40;57.70;;;;;;5076332;28;20471;-72
2022/06/28 08:02:16;;;;;;;3.50;1.57;;;24.50;56.70;;;;;;5076763;28;20547;-71
2022/06/28 08:04:43;;;;;;;5.53;1.33;;;24.70;56.90;;;;;;5077147;28;20484;-72
2022/06/28 08:07:10;;;;;;;5.23;1.07;;;24.90;55.00;;;;;;5076752;28;20806;-72
2022/06/28 08:09:37;;;;;;;3.13;1.10;;;24.90;54.40;;;;;;5076110;28;20794;-72
2022/06/28 08:12:07;;;;;;;3.17;1.20;;;25.10;54.10;;;;;;5075979;28;20456;-71
2022/06/28 08:14:34;;;;;;;2.57;1.03;;;25.20;53.30;;;;;;5075792;28;20464;-71
2022/06/28 08:17:02;;;;;;;2.87;0.93;;;25.20;52.60;;;;;;5075843;28;20490;-72
2022/06/28 08:19:29;;;;;;;2.73;1.17;;;25.20;52.30;;;;;;5075863;28;20452;-72
2022/06/28 08:21:56;;;;;;;5.23;1.00;;;25.30;53.40;;;;;;5075902;28;20461;-72
2022/06/28 08:24:22;;;;;;;3.13;1.00;;;25.40;52.50;;;;;;5075325;28;20981;-71
2022/06/28 08:26:49;;;;;;;2.17;1.00;;;25.40;53.10;;;;;;5075414;28;20448;-72
2022/06/28 08:29:18;;;;;;;2.60;0.90;;;25.50;51.40;;;;;;5075480;28;20483;-72
2022/06/28 08:31:45;;;;;;;3.73;0.77;;;25.60;52.60;;;;;;5075213;28;20812;-71
2022/06/28 08:34:12;;;;;;;2.80;0.90;;;25.80;52.40;;;;;;5075587;28;20453;-72
2022/06/28 08:36:39;;;;;;;1.90;0.80;;;26.00;52.70;;;;;;5075427;28;20461;-71
2022/06/28 08:39:06;;;;;;;1.17;0.67;;;26.30;51.80;;;;;;5075476;28;20444;-72
2022/06/28 08:41:34;;;;;;;3.37;0.87;;;26.50;50.40;;;;;;5075389;28;20451;-72
2022/06/28 08:44:01;;;;;;;4.40;1.07;;;26.80;50.30;;;;;;5075309;28;20475;-71
2022/06/28 08:46:32;;;;;;;6.87;1.10;;;27.00;48.20;;;;;;5075298;28;20436;-72
2022/06/28 08:49:02;;;;;;;1.67;0.77;;;27.20;45.80;;;;;;5075318;28;20447;-72
2022/06/28 08:51:32;;;;;;;3.10;0.90;;;27.40;45.70;;;;;;5075257;28;20443;-72
2022/06/28 08:54:01;;;;;;;4.57;1.10;;;27.50;45.80;;;;;;5075070;28;20469;-72
2022/06/28 08:56:28;;;;;;;4.07;1.03;;;27.70;44.90;;;;;;5075159;28;20508;-69
2022/06/28 08:58:57;;;;;;;2.77;1.03;;;27.70;44.60;;;;;;5075039;28;20452;-69
2022/06/28 09:01:24;;;;;;;3.50;1.27;;;27.60;44.50;;;;;;5074985;28;20477;-69
2022/06/28 09:03:54;;;;;;;7.03;1.00;;;27.50;44.90;;;;;;5074991;28;20479;-69
2022/06/28 09:06:23;;;;;;;7.00;0.90;;;27.40;44.70;;;;;;5076041;28;20762;-69
2022/06/28 09:08:50;;;;;;;3.30;0.77;;;27.30;45.80;;;;;;5074529;28;20429;-69
2022/06/28 09:11:17;;;;;;;3.30;0.90;;;27.30;45.50;;;;;;5074288;28;20436;-69
2022/06/28 09:13:44;;;;;;;3.27;1.10;;;27.40;44.30;;;;;;5074517;28;20997;-69
2022/06/28 09:16:12;;;;;;;4.33;0.80;;;27.40;44.90;;;;;;5074675;28;20488;-69
2022/06/28 09:18:47;;;;;;;1.73;0.90;;;27.50;43.20;;;;;;5074621;28;20460;-69
2022/06/28 09:21:16;;;;;;;2.60;1.03;;;27.70;44.00;;;;;;5074997;28;20456;-69
2022/06/28 09:23:45;;;;;;;3.43;0.70;;;27.90;41.80;;;;;;5074807;28;20476;-69
2022/06/28 09:26:13;;;;;;;3.70;0.80;;;28.00;42.40;;;;;;5074351;28;20960;-69
2022/06/28 09:28:43;;;;;;;3.50;1.23;;;28.00;41.50;;;;;;5074352;28;20445;-69
2022/06/28 09:31:19;;;;;;;4.17;1.07;;;28.20;41.30;;;;;;5074359;28;20432;-69
2022/06/28 09:33:49;;;;;;;2.33;1.00;;;28.40;41.90;;;;;;5074342;28;20521;-69
2022/06/28 09:36:19;;;;;;;1.43;0.70;;;28.70;40.90;;;;;;5074291;28;20476;-69
2022/06/28 09:38:45;;;;;;;1.43;0.70;;;29.10;39.60;;;;;;5074263;28;20494;-69
2022/06/28 09:41:22;;;;;;;2.83;0.90;;;29.40;38.80;;;;;;5074278;28;20440;-69
2022/06/28 09:43:58;;;;;;;2.40;0.77;;;29.70;38.90;;;;;;5074184;28;20472;-69
2022/06/28 09:46:27;;;;;;;3.50;1.27;;;30.10;39.40;;;;;;5074255;28;20440;-69
2022/06/28 09:48:58;;;;;;;2.50;0.90;;;30.50;37.90;;;;;;5074169;28;20460;-69
2022/06/28 09:51:29;;;;;;;3.73;1.10;;;30.50;35.50;;;;;;5074238;28;20489;-69
2022/06/28 09:53:57;;;;;;;3.53;0.80;;;30.50;35.60;;;;;;5075193;28;20460;-71
2022/06/28 09:56:26;;;;;;;1.37;0.60;;;30.70;33.60;;;;;;5075403;28;20502;-71
2022/06/28 09:58:53;;;;;;;2.93;1.17;;;30.90;33.60;;;;;;5075228;28;20455;-71
2022/06/28 10:01:21;;;;;;;4.00;0.80;;;31.30;35.00;;;;;;5075202;28;20444;-71
2022/06/28 10:03:49;;;;;;;1.53;0.73;;;31.70;33.60;;;;;;5075525;28;20474;-71
2022/06/28 10:06:17;;;;;;;2.13;1.00;;;31.90;32.50;;;;;;5075437;28;20444;-71
2022/06/28 10:08:46;;;;;;;2.00;0.90;;;32.30;32.70;;;;;;5074850;28;20474;-71
2022/06/28 10:11:13;;;;;;;5.97;1.60;;;32.60;34.20;;;;;;5075085;28;20447;-71
2022/06/28 10:16:36;;;;;;;3.20;1.47;;;33.20;29.00;;;;;;5075490;28;20505;-71
2022/06/28 10:19:04;;;;;;;2.60;1.10;;;33.30;28.50;;;;;;5075559;28;20429;-71
2022/06/28 10:21:47;;;;;;;2.57;1.20;;;33.40;28.80;;;;;;5075093;28;20436;-71
2022/06/28 10:24:15;;;;;;;2.23;0.70;;;33.60;30.00;;;;;;5073279;28;20471;-71
2022/06/28 10:26:46;;;;;;;5.63;1.37;;;33.90;29.00;;;;;;5076175;28;20436;-71
2022/06/28 10:29:15;;;;;;;2.70;1.00;;;34.40;29.90;;;;;;5075068;28;20498;-71
2022/06/28 10:31:43;;;;;;;5.60;1.40;;;34.90;30.10;;;;;;5074828;28;20535;-71
2022/06/28 10:34:12;;;;;;;1.70;1.10;;;35.50;29.50;;;;;;5073635;28;20471;-69
2022/06/28 10:36:48;;;;;;;2.80;1.10;;;36.00;28.30;;;;;;5073505;28;21003;-71
2022/06/28 10:39:18;;;;;;;2.13;0.90;;;36.30;25.60;;;;;;5074547;28;20447;-71
2022/06/28 10:41:46;;;;;;;2.80;0.80;;;36.40;25.30;;;;;;5075584;28;20182;-71
2022/06/28 10:44:15;;;;;;;2.27;1.00;;;36.30;24.10;;;;;;5075237;28;20308;-71
2022/06/28 10:46:43;;;;;;;1.80;1.00;;;36.30;25.10;;;;;;5073669;28;20251;-71
2022/06/28 10:49:11;;;;;;;2.37;1.00;;;36.50;25.70;;;;;;5073459;28;20206;-71
2022/06/28 10:52:09;;;;;;;1.50;0.90;;;36.80;25.90;;;;;;5073165;28;20209;-71
2022/06/28 10:54:38;;;;;;;2.97;0.90;;;37.30;24.10;;;;;;5066993;28;20228;-72
2022/06/28 10:57:20;;;;;;;3.58;1.20;;;38.00;24.60;;;;;;5072904;28;20586;-72
2022/06/28 10:59:49;;;;;;;2.95;1.20;;;38.70;23.20;;;;;;5073294;28;20186;-72
2022/06/28 11:02:16;;;;;;;2.50;0.98;;;39.20;23.40;;;;;;5073063;28;20255;-72
2022/06/28 11:04:45;;;;;;;3.33;1.13;;;39.90;23.10;;;;;;5073243;28;20225;-72
2022/06/28 11:07:23;;;;;;;2.33;0.90;;;40.50;22.40;;;;;;5073283;28;20205;-72
2022/06/28 11:10:10;;;;;;;3.25;0.90;;;41.20;21.20;;;;;;5072952;28;20653;-73
2022/06/28 11:12:39;;;;;;;2.58;0.68;;;41.70;19.20;;;;;;5073431;28;20213;-73
2022/06/28 11:15:08;;;;;;;2.30;0.90;;;41.80;19.10;;;;;;5073119;28;20226;-72
2022/06/28 11:17:37;;;;;;;2.53;1.00;;;41.80;19.30;;;;;;5073046;28;20225;-73
2022/06/28 11:20:06;;;;;;;5.43;1.05;;;41.70;19.40;;;;;;5073114;28;20210;-73
2022/06/28 11:22:37;;;;;;;1.75;0.93;;;41.40;19.50;;;;;;5073084;28;20202;-73
2022/06/28 11:25:08;;;;;;;1.33;0.75;;;41.30;19.90;;;;;;5072942;28;20233;-72
2022/06/28 11:27:34;;;;;;;2.28;0.88;;;41.40;19.70;;;;;;5072849;28;20183;-72
2022/06/28 11:30:06;;;;;;;2.15;1.10;;;41.50;18.80;;;;;;5072556;28;20205;-73
2022/06/28 11:32:35;;;;;;;3.15;1.42;;;41.70;19.00;;;;;;5073188;28;20206;-72
2022/06/28 11:35:05;;;;;;;2.50;1.23;;;41.90;17.80;;;;;;5076648;28;20226;-72
2022/06/28 11:37:34;;;;;;;2.53;1.30;;;42.20;17.10;;;;;;5076257;28;20694;-73
2022/06/28 11:40:02;;;;;;;3.45;1.10;;;42.60;18.50;;;;;;5076498;28;20202;-72
2022/06/28 11:42:30;;;;;;;2.47;1.27;;;43.20;19.40;;;;;;5076462;28;20212;-73
2022/06/28 11:44:58;;;;;;;3.33;1.27;;;43.70;18.40;;;;;;5076400;28;20648;-72
2022/06/28 11:47:25;;;;;;;3.78;1.08;;;44.20;18.90;;;;;;5076480;28;20222;-73
2022/06/28 11:50:07;;;;;;;2.47;1.02;;;44.50;18.20;;;;;;5076407;28;20202;-73
2022/06/28 11:52:35;;;;;;;3.05;1.40;;;44.90;18.20;;;;;;5076173;28;20196;-73
2022/06/28 11:55:02;;;;;;;2.42;1.33;;;45.40;17.60;;;;;;5076344;28;20225;-73
2022/06/28 11:57:30;;;;;;;2.55;1.17;;;45.70;15.40;;;;;;5076326;28;20227;-73
2022/06/28 11:59:59;;;;;;;1.55;0.98;;;46.00;16.10;;;;;;5076364;28;20231;-73
2022/06/28 12:02:49;;;;;;;1.63;0.85;;;46.40;16.20;;;;;;5076249;28;20182;-73
2022/06/28 12:05:31;;;;;;;3.28;1.23;;;46.70;15.40;;;;;;5076770;28;20233;-73
2022/06/28 12:07:59;;;;;;;3.80;0.95;;;46.90;14.80;;;;;;5076338;28;20182;-74
2022/06/28 12:10:28;;;;;;;1.83;0.80;;;46.80;15.10;;;;;;5076193;28;20202;-74
2022/06/28 12:12:57;;;;;;;1.98;0.90;;;47.00;15.90;;;;;;5075982;28;20544;-73
2022/06/28 12:15:34;;;;;;;2.03;1.33;;;47.30;16.00;;;;;;5076058;28;20221;-72
2022/06/28 12:18:03;;;;;;;2.55;1.02;;;47.60;15.60;;;;;;5075735;28;20581;-72
2022/06/28 12:20:31;;;;;;;1.33;0.75;;;48.00;15.50;;;;;;5076089;28;20216;-71
2022/06/28 12:23:00;;;;;;;2.97;1.05;;;48.20;14.90;;;;;;5075931;28;20201;-71
2022/06/28 12:25:27;;;;;;;2.70;1.40;;;48.50;14.80;;;;;;5076027;28;20218;-71
2022/06/28 12:27:54;;;;;;;2.88;1.33;;;48.80;14.00;;;;;;5076390;28;20209;-72
2022/06/28 12:30:22;;;;;;;2.30;1.05;;;48.50;12.50;;;;;;5076484;28;20216;-71
2022/06/28 12:32:52;;;;;;;2.60;1.55;;;48.30;13.90;;;;;;5077052;28;20210;-72
2022/06/28 12:35:19;;;;;;;2.40;1.55;;;48.40;14.00;;;;;;5077067;28;20225;-72
2022/06/28 12:37:46;;;;;;;2.40;1.40;;;48.70;13.70;;;;;;5077499;28;20240;-72
2022/06/28 12:40:14;;;;;;;2.00;1.30;;;49.00;12.60;;;;;;5077364;28;20590;-69
2022/06/28 12:42:41;;;;;;;3.58;1.25;;;49.20;13.60;;;;;;5076872;28;20216;-69
2022/06/28 12:45:09;;;;;;;4.25;1.70;;;49.50;14.10;;;;;;5075777;28;20228;-71
2022/06/28 12:47:39;;;;;;;3.70;1.60;;;49.80;13.70;;;;;;5075701;28;20209;-71
2022/06/28 12:50:08;;;;;;;4.07;1.80;;;50.20;13.40;;;;;;5075097;28;20544;-72
2022/06/28 12:52:37;;;;;;;3.72;1.90;;;50.40;11.70;;;;;;5075456;28;20202;-73
2022/06/28 12:55:05;;;;;;;3.25;1.80;;;50.30;11.50;;;;;;5075525;28;20226;-72
2022/06/28 12:57:32;;;;;;;1.50;1.08;;;49.50;12.30;;;;;;5075507;28;20291;-73
2022/06/28 12:59:59;;;;;;;3.70;1.75;;;48.30;13.20;;;;;;5075217;28;20208;-73
2022/06/28 13:02:27;;;;;;;3.05;1.52;;;46.90;15.00;;;;;;5075033;28;20193;-72
2022/06/28 13:04:56;;;;;;;2.50;1.63;;;45.70;16.20;;;;;;5076796;28;20226;-71
2022/06/28 13:07:24;;;;;;;5.07;1.60;;;45.30;17.10;;;;;;5076575;28;20197;-71